sensor_id;sensor_type;location;lat;lon;timestamp;temperature;humidity
30572;DHT22;17348;50.948;10.696;2022-09-03T00:00:45;13.60;99.90
30572;DHT22;17348;50.948;10.696;2022-09-03T00:03:54;13.50;99.90
30572;DHT22;17348;50.948;10.696;2022-09-03T00:07:01;13.50;99.90
30572;DHT22;17348;50.948;10.696;2022-09-03T00:10:07;13.40;99.90
30572;DHT22;17348;50.948;10.696;2022-09-03T00:13:14;13.40;99.90
30572;DHT22;17348;50.948;10.696;2022-09-03T00:16:19;13.30;99.90
30572;DHT22;17348;50.948;10.696;2022-09-03T00:19:27;13.30;99.90
30572;DHT22;17348;50.948;10.696;2022-09-03T00:22:36;13.20;99.90
30572;DHT22;17348;50.948;10.696;2022-09-03T00:25:43;13.20;99.90
30572;DHT22;17348;50.948;10.696;2022-09-03T00:28:51;13.20;99.90
30572;DHT22;17348;50.948;10.696;2022-09-03T00:31:58;13.10;99.90
30572;DHT22;17348;50.948;10.696;2022-09-03T00:35:07;13.10;99.90
30572;DHT22;17348;50.948;10.696;2022-09-03T00:38:13;13.00;99.90
30572;DHT22;17348;50.948;10.696;2022-09-03T00:41:25;13.00;99.90
30572;DHT22;17348;50.948;10.696;2022-09-03T00:44:47;12.90;99.90
30572;DHT22;17348;50.948;10.696;2022-09-03T00:48:04;12.90;99.90
30572;DHT22;17348;50.948;10.696;2022-09-03T00:51:15;12.90;99.90
30572;DHT22;17348;50.948;10.696;2022-09-03T00:54:26;12.90;99.90
30572;DHT22;17348;50.948;10.696;2022-09-03T00:57:42;12.90;99.90
30572;DHT22;17348;50.948;10.696;2022-09-03T01:00:50;12.90;99.90
30572;DHT22;17348;50.948;10.696;2022-09-03T01:04:00;12.90;99.90
30572;DHT22;17348;50.948;10.696;2022-09-03T01:07:13;13.00;99.90
30572;DHT22;17348;50.948;10.696;2022-09-03T01:10:26;12.90;99.90
30572;DHT22;17348;50.948;10.696;2022-09-03T01:13:37;12.90;99.90
30572;DHT22;17348;50.948;10.696;2022-09-03T01:16:47;12.90;99.90
30572;DHT22;17348;50.948;10.696;2022-09-03T01:20:03;12.90;99.90
30572;DHT22;17348;50.948;10.696;2022-09-03T01:23:34;12.90;99.90
30572;DHT22;17348;50.948;10.696;2022-09-03T01:26:52;12.90;99.90
30572;DHT22;17348;50.948;10.696;2022-09-03T01:30:04;12.90;99.90
30572;DHT22;17348;50.948;10.696;2022-09-03T01:33:13;12.90;99.90
30572;DHT22;17348;50.948;10.696;2022-09-03T01:36:23;12.90;99.90
30572;DHT22;17348;50.948;10.696;2022-09-03T01:39:36;12.90;99.90
30572;DHT22;17348;50.948;10.696;2022-09-03T01:42:49;12.90;99.90
30572;DHT22;17348;50.948;10.696;2022-09-03T01:46:00;12.90;99.90
30572;DHT22;17348;50.948;10.696;2022-09-03T01:49:21;12.90;99.90
30572;DHT22;17348;50.948;10.696;2022-09-03T01:52:35;12.90;99.90
30572;DHT22;17348;50.948;10.696;2022-09-03T01:55:48;12.90;99.90
30572;DHT22;17348;50.948;10.696;2022-09-03T01:59:01;12.90;99.90
30572;DHT22;17348;50.948;10.696;2022-09-03T02:02:12;12.90;99.90
30572;DHT22;17348;50.948;10.696;2022-09-03T02:05:22;12.90;99.90
30572;DHT22;17348;50.948;10.696;2022-09-03T02:08:24;12.90;99.90
30572;DHT22;17348;50.948;10.696;2022-09-03T02:11:27;12.90;99.90
30572;DHT22;17348;50.948;10.696;2022-09-03T02:14:30;12.80;99.90
30572;DHT22;17348;50.948;10.696;2022-09-03T02:17:34;12.80;99.90
30572;DHT22;17348;50.948;10.696;2022-09-03T02:20:37;12.80;99.90
30572;DHT22;17348;50.948;10.696;2022-09-03T02:23:40;12.70;99.90
30572;DHT22;17348;50.948;10.696;2022-09-03T02:26:43;12.70;99.90
30572;DHT22;17348;50.948;10.696;2022-09-03T02:29:47;12.70;99.90
30572;DHT22;17348;50.948;10.696;2022-09-03T02:32:51;12.70;99.90
30572;DHT22;17348;50.948;10.696;2022-09-03T02:35:53;12.60;99.90
30572;DHT22;17348;50.948;10.696;2022-09-03T02:38:56;12.60;99.90
30572;DHT22;17348;50.948;10.696;2022-09-03T02:41:58;12.50;99.90
30572;DHT22;17348;50.948;10.696;2022-09-03T02:45:08;12.50;99.90
30572;DHT22;17348;50.948;10.696;2022-09-03T02:48:13;12.40;99.90
30572;DHT22;17348;50.948;10.696;2022-09-03T02:51:18;12.30;99.90
30572;DHT22;17348;50.948;10.696;2022-09-03T02:54:20;12.30;99.90
30572;DHT22;17348;50.948;10.696;2022-09-03T02:57:23;12.20;99.90
30572;DHT22;17348;50.948;10.696;2022-09-03T03:00:25;12.10;99.90
30572;DHT22;17348;50.948;10.696;2022-09-03T03:03:30;12.10;99.90
30572;DHT22;17348;50.948;10.696;2022-09-03T03:06:32;12.00;99.90
30572;DHT22;17348;50.948;10.696;2022-09-03T03:09:35;12.00;99.90
30572;DHT22;17348;50.948;10.696;2022-09-03T03:12:37;11.90;99.90
30572;DHT22;17348;50.948;10.696;2022-09-03T03:15:40;11.80;99.90
30572;DHT22;17348;50.948;10.696;2022-09-03T03:18:44;11.80;99.90
30572;DHT22;17348;50.948;10.696;2022-09-03T03:21:46;11.80;99.90
30572;DHT22;17348;50.948;10.696;2022-09-03T03:24:49;11.70;99.90
30572;DHT22;17348;50.948;10.696;2022-09-03T03:27:53;11.70;99.90
30572;DHT22;17348;50.948;10.696;2022-09-03T03:30:56;11.70;99.90
30572;DHT22;17348;50.948;10.696;2022-09-03T03:34:01;11.70;99.90
30572;DHT22;17348;50.948;10.696;2022-09-03T03:37:04;11.70;99.90
30572;DHT22;17348;50.948;10.696;2022-09-03T03:40:07;11.60;99.90
30572;DHT22;17348;50.948;10.696;2022-09-03T03:43:10;11.60;99.90
30572;DHT22;17348;50.948;10.696;2022-09-03T03:46:12;11.60;99.90
30572;DHT22;17348;50.948;10.696;2022-09-03T03:49:17;11.60;99.90
30572;DHT22;17348;50.948;10.696;2022-09-03T03:52:19;11.60;99.90
30572;DHT22;17348;50.948;10.696;2022-09-03T03:55:21;11.50;99.90
30572;DHT22;17348;50.948;10.696;2022-09-03T03:58:24;11.60;99.90
30572;DHT22;17348;50.948;10.696;2022-09-03T04:01:27;11.50;99.90
30572;DHT22;17348;50.948;10.696;2022-09-03T04:04:31;11.50;99.90
30572;DHT22;17348;50.948;10.696;2022-09-03T04:07:33;11.50;99.90
30572;DHT22;17348;50.948;10.696;2022-09-03T04:10:35;11.50;99.90
30572;DHT22;17348;50.948;10.696;2022-09-03T04:13:40;11.50;99.90
30572;DHT22;17348;50.948;10.696;2022-09-03T04:16:43;11.50;99.90
30572;DHT22;17348;50.948;10.696;2022-09-03T04:19:48;11.50;99.90
30572;DHT22;17348;50.948;10.696;2022-09-03T04:22:50;11.40;99.90
30572;DHT22;17348;50.948;10.696;2022-09-03T04:25:52;11.40;99.90
30572;DHT22;17348;50.948;10.696;2022-09-03T04:28:55;11.40;99.90
30572;DHT22;17348;50.948;10.696;2022-09-03T04:31:57;11.40;99.90
30572;DHT22;17348;50.948;10.696;2022-09-03T04:35:18;11.30;99.90
30572;DHT22;17348;50.948;10.696;2022-09-03T04:38:20;11.30;99.90
30572;DHT22;17348;50.948;10.696;2022-09-03T04:41:24;11.30;99.90
30572;DHT22;17348;50.948;10.696;2022-09-03T04:44:27;11.30;99.90
30572;DHT22;17348;50.948;10.696;2022-09-03T04:47:29;11.30;99.90
30572;DHT22;17348;50.948;10.696;2022-09-03T04:50:33;11.20;99.90
30572;DHT22;17348;50.948;10.696;2022-09-03T04:53:37;11.20;99.90
30572;DHT22;17348;50.948;10.696;2022-09-03T04:56:40;11.20;99.90
30572;DHT22;17348;50.948;10.696;2022-09-03T04:59:42;11.20;99.90
30572;DHT22;17348;50.948;10.696;2022-09-03T05:02:44;11.30;99.90
30572;DHT22;17348;50.948;10.696;2022-09-03T05:05:54;11.30;99.90
30572;DHT22;17348;50.948;10.696;2022-09-03T05:08:57;11.30;99.90
30572;DHT22;17348;50.948;10.696;2022-09-03T05:11:59;11.40;99.90
30572;DHT22;17348;50.948;10.696;2022-09-03T05:15:02;11.50;99.90
30572;DHT22;17348;50.948;10.696;2022-09-03T05:18:05;11.50;99.90
30572;DHT22;17348;50.948;10.696;2022-09-03T05:21:10;11.50;99.90
30572;DHT22;17348;50.948;10.696;2022-09-03T05:24:13;11.60;99.90
30572;DHT22;17348;50.948;10.696;2022-09-03T05:27:16;11.70;99.90
30572;DHT22;17348;50.948;10.696;2022-09-03T05:30:18;11.80;99.90
30572;DHT22;17348;50.948;10.696;2022-09-03T05:33:22;11.90;99.90
30572;DHT22;17348;50.948;10.696;2022-09-03T05:36:27;11.90;99.90
30572;DHT22;17348;50.948;10.696;2022-09-03T05:39:30;12.00;99.90
30572;DHT22;17348;50.948;10.696;2022-09-03T05:42:32;12.10;99.90
30572;DHT22;17348;50.948;10.696;2022-09-03T05:45:38;12.10;99.90
30572;DHT22;17348;50.948;10.696;2022-09-03T05:48:41;12.20;99.90
30572;DHT22;17348;50.948;10.696;2022-09-03T05:51:45;12.30;99.90
30572;DHT22;17348;50.948;10.696;2022-09-03T05:54:47;12.40;99.90
30572;DHT22;17348;50.948;10.696;2022-09-03T05:57:51;12.50;99.90
30572;DHT22;17348;50.948;10.696;2022-09-03T06:00:53;12.60;99.90
30572;DHT22;17348;50.948;10.696;2022-09-03T06:03:56;12.70;99.90
30572;DHT22;17348;50.948;10.696;2022-09-03T06:07:00;12.80;99.90
30572;DHT22;17348;50.948;10.696;2022-09-03T06:10:03;12.90;99.90
30572;DHT22;17348;50.948;10.696;2022-09-03T06:13:07;13.00;99.90
30572;DHT22;17348;50.948;10.696;2022-09-03T06:16:09;13.10;99.90
30572;DHT22;17348;50.948;10.696;2022-09-03T06:19:12;13.20;99.90
30572;DHT22;17348;50.948;10.696;2022-09-03T06:22:15;13.30;99.90
30572;DHT22;17348;50.948;10.696;2022-09-03T06:25:18;13.50;99.90
30572;DHT22;17348;50.948;10.696;2022-09-03T06:28:20;13.70;99.90
30572;DHT22;17348;50.948;10.696;2022-09-03T06:31:23;13.80;99.90
30572;DHT22;17348;50.948;10.696;2022-09-03T06:34:25;13.90;99.90
30572;DHT22;17348;50.948;10.696;2022-09-03T06:37:29;13.90;99.90
30572;DHT22;17348;50.948;10.696;2022-09-03T06:40:32;14.10;99.90
30572;DHT22;17348;50.948;10.696;2022-09-03T06:43:36;14.20;99.90
30572;DHT22;17348;50.948;10.696;2022-09-03T06:46:39;14.40;99.90
30572;DHT22;17348;50.948;10.696;2022-09-03T06:49:42;14.50;99.90
30572;DHT22;17348;50.948;10.696;2022-09-03T06:52:51;14.70;99.90
30572;DHT22;17348;50.948;10.696;2022-09-03T06:55:55;14.90;99.90
30572;DHT22;17348;50.948;10.696;2022-09-03T06:58:59;15.00;99.90
30572;DHT22;17348;50.948;10.696;2022-09-03T07:02:04;15.10;99.90
30572;DHT22;17348;50.948;10.696;2022-09-03T07:05:08;15.20;99.90
30572;DHT22;17348;50.948;10.696;2022-09-03T07:08:12;15.40;99.90
30572;DHT22;17348;50.948;10.696;2022-09-03T07:11:15;15.60;99.90
30572;DHT22;17348;50.948;10.696;2022-09-03T07:14:20;15.70;99.90
30572;DHT22;17348;50.948;10.696;2022-09-03T07:17:22;15.80;99.90
30572;DHT22;17348;50.948;10.696;2022-09-03T07:20:25;16.00;99.90
30572;DHT22;17348;50.948;10.696;2022-09-03T07:23:29;16.20;99.90
30572;DHT22;17348;50.948;10.696;2022-09-03T07:26:34;16.20;99.90
30572;DHT22;17348;50.948;10.696;2022-09-03T07:29:36;16.30;99.90
30572;DHT22;17348;50.948;10.696;2022-09-03T07:32:38;16.30;99.90
30572;DHT22;17348;50.948;10.696;2022-09-03T07:35:41;16.40;99.90
30572;DHT22;17348;50.948;10.696;2022-09-03T07:38:45;16.50;99.90
30572;DHT22;17348;50.948;10.696;2022-09-03T07:41:47;16.60;99.90
30572;DHT22;17348;50.948;10.696;2022-09-03T07:44:50;16.70;99.90
30572;DHT22;17348;50.948;10.696;2022-09-03T07:47:52;16.80;99.90
30572;DHT22;17348;50.948;10.696;2022-09-03T07:51:02;16.80;99.90
30572;DHT22;17348;50.948;10.696;2022-09-03T07:54:07;17.00;99.90
30572;DHT22;17348;50.948;10.696;2022-09-03T07:57:10;17.40;99.90
30572;DHT22;17348;50.948;10.696;2022-09-03T08:00:14;17.40;99.90
30572;DHT22;17348;50.948;10.696;2022-09-03T08:03:17;17.40;99.90
30572;DHT22;17348;50.948;10.696;2022-09-03T08:06:21;17.50;99.90
30572;DHT22;17348;50.948;10.696;2022-09-03T08:09:25;17.50;99.90
30572;DHT22;17348;50.948;10.696;2022-09-03T08:12:27;17.50;99.90
30572;DHT22;17348;50.948;10.696;2022-09-03T08:15:30;17.70;99.90
30572;DHT22;17348;50.948;10.696;2022-09-03T08:18:33;17.90;99.90
30572;DHT22;17348;50.948;10.696;2022-09-03T08:21:38;18.00;99.90
30572;DHT22;17348;50.948;10.696;2022-09-03T08:24:43;18.50;99.90
30572;DHT22;17348;50.948;10.696;2022-09-03T08:27:45;18.60;99.90
30572;DHT22;17348;50.948;10.696;2022-09-03T08:30:48;18.70;99.90
30572;DHT22;17348;50.948;10.696;2022-09-03T08:33:51;18.80;99.90
30572;DHT22;17348;50.948;10.696;2022-09-03T08:36:54;18.90;99.90
30572;DHT22;17348;50.948;10.696;2022-09-03T08:39:57;19.00;99.90
30572;DHT22;17348;50.948;10.696;2022-09-03T08:43:08;19.10;99.90
30572;DHT22;17348;50.948;10.696;2022-09-03T08:46:13;19.10;99.90
30572;DHT22;17348;50.948;10.696;2022-09-03T08:49:20;19.20;99.90
30572;DHT22;17348;50.948;10.696;2022-09-03T08:52:31;19.30;99.90
30572;DHT22;17348;50.948;10.696;2022-09-03T08:55:36;19.50;99.90
30572;DHT22;17348;50.948;10.696;2022-09-03T08:58:42;19.60;99.90
30572;DHT22;17348;50.948;10.696;2022-09-03T09:01:51;19.80;99.90
30572;DHT22;17348;50.948;10.696;2022-09-03T09:04:59;19.90;99.90
30572;DHT22;17348;50.948;10.696;2022-09-03T09:08:14;20.00;99.90
30572;DHT22;17348;50.948;10.696;2022-09-03T09:11:27;20.10;99.70
30572;DHT22;17348;50.948;10.696;2022-09-03T09:14:37;20.30;99.90
30572;DHT22;17348;50.948;10.696;2022-09-03T09:18:03;20.40;99.30
30572;DHT22;17348;50.948;10.696;2022-09-03T09:21:09;20.50;98.60
30572;DHT22;17348;50.948;10.696;2022-09-03T09:24:19;20.70;98.60
30572;DHT22;17348;50.948;10.696;2022-09-03T09:27:24;20.80;98.30
30572;DHT22;17348;50.948;10.696;2022-09-03T09:30:28;21.00;97.80
30572;DHT22;17348;50.948;10.696;2022-09-03T09:33:31;21.20;97.20
30572;DHT22;17348;50.948;10.696;2022-09-03T09:36:41;21.30;96.60
30572;DHT22;17348;50.948;10.696;2022-09-03T09:39:54;21.50;95.60
30572;DHT22;17348;50.948;10.696;2022-09-03T09:43:10;21.60;95.40
30572;DHT22;17348;50.948;10.696;2022-09-03T09:46:14;21.70;95.00
30572;DHT22;17348;50.948;10.696;2022-09-03T09:49:30;21.80;95.20
30572;DHT22;17348;50.948;10.696;2022-09-03T09:52:33;22.10;94.60
30572;DHT22;17348;50.948;10.696;2022-09-03T09:55:35;22.20;94.30
30572;DHT22;17348;50.948;10.696;2022-09-03T09:59:01;22.30;93.60
30572;DHT22;17348;50.948;10.696;2022-09-03T10:02:10;22.50;93.00
30572;DHT22;17348;50.948;10.696;2022-09-03T10:05:15;22.70;92.30
30572;DHT22;17348;50.948;10.696;2022-09-03T10:08:20;22.80;91.70
30572;DHT22;17348;50.948;10.696;2022-09-03T10:11:23;22.80;91.80
30572;DHT22;17348;50.948;10.696;2022-09-03T10:14:31;23.00;91.50
30572;DHT22;17348;50.948;10.696;2022-09-03T10:17:43;23.10;91.20
30572;DHT22;17348;50.948;10.696;2022-09-03T10:20:52;23.40;91.20
30572;DHT22;17348;50.948;10.696;2022-09-03T10:23:58;23.60;90.20
30572;DHT22;17348;50.948;10.696;2022-09-03T10:27:02;23.70;90.00
30572;DHT22;17348;50.948;10.696;2022-09-03T10:30:06;23.80;89.70
30572;DHT22;17348;50.948;10.696;2022-09-03T10:33:14;23.90;89.80
30572;DHT22;17348;50.948;10.696;2022-09-03T10:36:21;24.00;88.80
30572;DHT22;17348;50.948;10.696;2022-09-03T10:39:39;24.00;89.30
30572;DHT22;17348;50.948;10.696;2022-09-03T10:42:47;24.20;88.00
30572;DHT22;17348;50.948;10.696;2022-09-03T10:46:01;24.20;88.00
30572;DHT22;17348;50.948;10.696;2022-09-03T10:49:19;24.20;88.60
30572;DHT22;17348;50.948;10.696;2022-09-03T10:52:31;24.30;88.40
30572;DHT22;17348;50.948;10.696;2022-09-03T10:55:45;24.50;88.60
30572;DHT22;17348;50.948;10.696;2022-09-03T10:59:00;24.60;88.10
30572;DHT22;17348;50.948;10.696;2022-09-03T11:02:18;24.80;88.80
30572;DHT22;17348;50.948;10.696;2022-09-03T11:05:28;24.80;87.10
30572;DHT22;17348;50.948;10.696;2022-09-03T11:08:35;24.50;88.00
30572;DHT22;17348;50.948;10.696;2022-09-03T11:11:43;24.40;88.10
30572;DHT22;17348;50.948;10.696;2022-09-03T11:14:52;24.20;88.50
30572;DHT22;17348;50.948;10.696;2022-09-03T11:18:03;24.20;88.30
30572;DHT22;17348;50.948;10.696;2022-09-03T11:21:12;24.30;89.00
30572;DHT22;17348;50.948;10.696;2022-09-03T11:24:21;24.50;88.30
30572;DHT22;17348;50.948;10.696;2022-09-03T11:27:32;24.50;88.10
30572;DHT22;17348;50.948;10.696;2022-09-03T11:30:48;24.40;86.80
30572;DHT22;17348;50.948;10.696;2022-09-03T11:33:58;24.40;88.00
30572;DHT22;17348;50.948;10.696;2022-09-03T11:37:20;24.50;87.40
30572;DHT22;17348;50.948;10.696;2022-09-03T11:40:30;24.70;87.40
30572;DHT22;17348;50.948;10.696;2022-09-03T11:43:33;24.90;86.10
30572;DHT22;17348;50.948;10.696;2022-09-03T11:46:38;25.20;86.10
30572;DHT22;17348;50.948;10.696;2022-09-03T11:49:46;25.30;85.10
30572;DHT22;17348;50.948;10.696;2022-09-03T11:52:51;25.20;85.50
30572;DHT22;17348;50.948;10.696;2022-09-03T11:55:58;25.30;85.70
30572;DHT22;17348;50.948;10.696;2022-09-03T11:59:05;25.30;83.80
30572;DHT22;17348;50.948;10.696;2022-09-03T12:02:24;25.20;83.80
30572;DHT22;17348;50.948;10.696;2022-09-03T12:05:35;25.00;83.80
30572;DHT22;17348;50.948;10.696;2022-09-03T12:08:56;24.90;83.20
30572;DHT22;17348;50.948;10.696;2022-09-03T12:12:11;24.70;84.40
30572;DHT22;17348;50.948;10.696;2022-09-03T12:15:25;24.70;84.90
30572;DHT22;17348;50.948;10.696;2022-09-03T12:18:33;24.60;84.00
30572;DHT22;17348;50.948;10.696;2022-09-03T12:21:40;24.50;84.70
30572;DHT22;17348;50.948;10.696;2022-09-03T12:24:44;24.50;84.30
30572;DHT22;17348;50.948;10.696;2022-09-03T12:27:47;24.50;85.20
30572;DHT22;17348;50.948;10.696;2022-09-03T12:30:50;24.50;84.80
30572;DHT22;17348;50.948;10.696;2022-09-03T12:33:55;24.60;84.60
30572;DHT22;17348;50.948;10.696;2022-09-03T12:37:00;24.60;84.80
30572;DHT22;17348;50.948;10.696;2022-09-03T12:40:03;24.90;84.00
30572;DHT22;17348;50.948;10.696;2022-09-03T12:43:12;25.00;84.10
30572;DHT22;17348;50.948;10.696;2022-09-03T12:46:14;25.00;83.90
30572;DHT22;17348;50.948;10.696;2022-09-03T12:49:17;25.10;83.30
30572;DHT22;17348;50.948;10.696;2022-09-03T12:52:29;25.20;83.10
30572;DHT22;17348;50.948;10.696;2022-09-03T12:55:36;25.30;82.00
30572;DHT22;17348;50.948;10.696;2022-09-03T12:58:47;25.30;83.10
30572;DHT22;17348;50.948;10.696;2022-09-03T13:01:53;25.40;81.90
30572;DHT22;17348;50.948;10.696;2022-09-03T13:04:56;25.40;82.10
30572;DHT22;17348;50.948;10.696;2022-09-03T13:08:01;25.40;80.90
30572;DHT22;17348;50.948;10.696;2022-09-03T13:11:08;25.20;81.30
30572;DHT22;17348;50.948;10.696;2022-09-03T13:14:11;25.20;81.10
30572;DHT22;17348;50.948;10.696;2022-09-03T13:17:31;24.90;80.80
30572;DHT22;17348;50.948;10.696;2022-09-03T13:20:46;24.80;81.10
30572;DHT22;17348;50.948;10.696;2022-09-03T13:24:07;24.50;81.00
30572;DHT22;17348;50.948;10.696;2022-09-03T13:27:18;24.40;81.80
30572;DHT22;17348;50.948;10.696;2022-09-03T13:30:28;24.40;82.00
30572;DHT22;17348;50.948;10.696;2022-09-03T13:33:36;24.30;81.90
30572;DHT22;17348;50.948;10.696;2022-09-03T13:36:44;24.20;82.00
30572;DHT22;17348;50.948;10.696;2022-09-03T13:39:56;24.20;82.20
30572;DHT22;17348;50.948;10.696;2022-09-03T13:43:03;24.10;82.00
30572;DHT22;17348;50.948;10.696;2022-09-03T13:46:11;24.30;81.80
30572;DHT22;17348;50.948;10.696;2022-09-03T13:49:27;24.30;81.90
30572;DHT22;17348;50.948;10.696;2022-09-03T13:52:52;24.30;82.30
30572;DHT22;17348;50.948;10.696;2022-09-03T13:56:14;24.20;82.30
30572;DHT22;17348;50.948;10.696;2022-09-03T13:59:28;24.20;82.20
30572;DHT22;17348;50.948;10.696;2022-09-03T14:02:49;24.20;81.70
30572;DHT22;17348;50.948;10.696;2022-09-03T14:06:01;24.10;81.50
30572;DHT22;17348;50.948;10.696;2022-09-03T14:09:13;24.00;81.70
30572;DHT22;17348;50.948;10.696;2022-09-03T14:12:20;23.90;82.20
30572;DHT22;17348;50.948;10.696;2022-09-03T14:15:31;23.80;82.20
30572;DHT22;17348;50.948;10.696;2022-09-03T14:18:40;23.80;82.20
30572;DHT22;17348;50.948;10.696;2022-09-03T14:21:49;23.70;82.50
30572;DHT22;17348;50.948;10.696;2022-09-03T14:24:55;23.70;82.40
30572;DHT22;17348;50.948;10.696;2022-09-03T14:28:14;23.60;82.40
30572;DHT22;17348;50.948;10.696;2022-09-03T14:31:26;23.50;82.50
30572;DHT22;17348;50.948;10.696;2022-09-03T14:34:37;23.50;82.40
30572;DHT22;17348;50.948;10.696;2022-09-03T14:37:58;23.40;83.10
30572;DHT22;17348;50.948;10.696;2022-09-03T14:41:05;23.30;84.10
30572;DHT22;17348;50.948;10.696;2022-09-03T14:44:27;23.20;84.70
30572;DHT22;17348;50.948;10.696;2022-09-03T14:47:43;23.20;84.60
30572;DHT22;17348;50.948;10.696;2022-09-03T14:51:05;23.10;85.10
30572;DHT22;17348;50.948;10.696;2022-09-03T14:57:48;22.90;88.60
30572;DHT22;17348;50.948;10.696;2022-09-03T15:01:00;22.70;90.00
30572;DHT22;17348;50.948;10.696;2022-09-03T15:04:30;22.60;90.70
30572;DHT22;17348;50.948;10.696;2022-09-03T15:07:40;22.50;90.20
30572;DHT22;17348;50.948;10.696;2022-09-03T15:10:45;22.30;90.10
30572;DHT22;17348;50.948;10.696;2022-09-03T15:13:51;22.30;90.60
30572;DHT22;17348;50.948;10.696;2022-09-03T15:16:59;22.30;91.20
30572;DHT22;17348;50.948;10.696;2022-09-03T15:20:18;22.20;91.30
30572;DHT22;17348;50.948;10.696;2022-09-03T15:23:47;22.10;92.40
30572;DHT22;17348;50.948;10.696;2022-09-03T15:27:07;22.00;94.00
30572;DHT22;17348;50.948;10.696;2022-09-03T15:30:13;21.80;95.00
30572;DHT22;17348;50.948;10.696;2022-09-03T15:33:28;21.60;96.30
30572;DHT22;17348;50.948;10.696;2022-09-03T15:36:36;21.50;96.90
30572;DHT22;17348;50.948;10.696;2022-09-03T15:39:43;21.30;97.80
30572;DHT22;17348;50.948;10.696;2022-09-03T15:42:50;21.20;98.30
30572;DHT22;17348;50.948;10.696;2022-09-03T15:45:55;21.00;98.30
30572;DHT22;17348;50.948;10.696;2022-09-03T15:49:02;20.80;98.70
30572;DHT22;17348;50.948;10.696;2022-09-03T15:52:09;20.60;99.30
30572;DHT22;17348;50.948;10.696;2022-09-03T15:55:26;20.50;99.90
30572;DHT22;17348;50.948;10.696;2022-09-03T15:58:34;20.40;99.90
30572;DHT22;17348;50.948;10.696;2022-09-03T16:01:43;20.20;99.90
30572;DHT22;17348;50.948;10.696;2022-09-03T16:04:58;20.10;99.90
30572;DHT22;17348;50.948;10.696;2022-09-03T16:08:11;19.90;99.90
30572;DHT22;17348;50.948;10.696;2022-09-03T16:11:31;19.80;99.90
30572;DHT22;17348;50.948;10.696;2022-09-03T16:14:38;19.70;99.90
30572;DHT22;17348;50.948;10.696;2022-09-03T16:17:50;19.60;99.90
30572;DHT22;17348;50.948;10.696;2022-09-03T16:21:01;19.60;99.90
30572;DHT22;17348;50.948;10.696;2022-09-03T16:24:12;19.50;99.90
30572;DHT22;17348;50.948;10.696;2022-09-03T16:27:21;19.50;99.90
30572;DHT22;17348;50.948;10.696;2022-09-03T16:30:35;19.40;99.90
30572;DHT22;17348;50.948;10.696;2022-09-03T16:33:48;19.30;99.90
30572;DHT22;17348;50.948;10.696;2022-09-03T16:37:02;19.20;99.90
30572;DHT22;17348;50.948;10.696;2022-09-03T16:40:15;19.20;99.90
30572;DHT22;17348;50.948;10.696;2022-09-03T16:43:24;19.20;99.90
30572;DHT22;17348;50.948;10.696;2022-09-03T16:46:34;19.20;99.90
30572;DHT22;17348;50.948;10.696;2022-09-03T16:49:49;19.10;99.90
30572;DHT22;17348;50.948;10.696;2022-09-03T16:53:04;19.10;99.90
30572;DHT22;17348;50.948;10.696;2022-09-03T16:56:25;19.10;99.90
30572;DHT22;17348;50.948;10.696;2022-09-03T16:59:58;19.10;99.90
30572;DHT22;17348;50.948;10.696;2022-09-03T17:03:23;19.00;99.90
30572;DHT22;17348;50.948;10.696;2022-09-03T17:06:45;18.90;99.90
30572;DHT22;17348;50.948;10.696;2022-09-03T17:09:58;18.80;99.90
30572;DHT22;17348;50.948;10.696;2022-09-03T17:13:17;18.80;99.90
30572;DHT22;17348;50.948;10.696;2022-09-03T17:16:38;18.80;99.90
30572;DHT22;17348;50.948;10.696;2022-09-03T17:19:49;18.80;99.90
30572;DHT22;17348;50.948;10.696;2022-09-03T17:23:02;18.70;99.90
30572;DHT22;17348;50.948;10.696;2022-09-03T17:26:19;18.70;99.90
30572;DHT22;17348;50.948;10.696;2022-09-03T17:29:34;18.70;99.90
30572;DHT22;17348;50.948;10.696;2022-09-03T17:36:11;18.60;99.90
30572;DHT22;17348;50.948;10.696;2022-09-03T17:39:43;18.60;99.90
30572;DHT22;17348;50.948;10.696;2022-09-03T17:42:55;18.50;99.90
30572;DHT22;17348;50.948;10.696;2022-09-03T17:46:07;18.50;99.90
30572;DHT22;17348;50.948;10.696;2022-09-03T17:49:17;18.50;99.90
30572;DHT22;17348;50.948;10.696;2022-09-03T17:52:26;18.50;99.90
30572;DHT22;17348;50.948;10.696;2022-09-03T17:55:33;18.40;99.90
30572;DHT22;17348;50.948;10.696;2022-09-03T17:58:40;18.30;99.90
30572;DHT22;17348;50.948;10.696;2022-09-03T18:01:49;18.30;99.90
30572;DHT22;17348;50.948;10.696;2022-09-03T18:04:56;18.20;99.90
30572;DHT22;17348;50.948;10.696;2022-09-03T18:08:05;18.10;99.90
30572;DHT22;17348;50.948;10.696;2022-09-03T18:11:11;18.10;99.90
30572;DHT22;17348;50.948;10.696;2022-09-03T18:14:23;18.10;99.90
30572;DHT22;17348;50.948;10.696;2022-09-03T18:17:34;18.00;99.90
30572;DHT22;17348;50.948;10.696;2022-09-03T18:20:42;18.00;99.90
30572;DHT22;17348;50.948;10.696;2022-09-03T18:24:16;18.00;99.90
30572;DHT22;17348;50.948;10.696;2022-09-03T18:27:41;18.00;99.90
30572;DHT22;17348;50.948;10.696;2022-09-03T18:31:04;18.00;99.90
30572;DHT22;17348;50.948;10.696;2022-09-03T18:34:31;17.90;99.90
30572;DHT22;17348;50.948;10.696;2022-09-03T18:37:52;17.80;99.90
30572;DHT22;17348;50.948;10.696;2022-09-03T18:45:10;17.80;99.90
30572;DHT22;17348;50.948;10.696;2022-09-03T18:48:37;17.80;99.90
30572;DHT22;17348;50.948;10.696;2022-09-03T18:52:05;17.70;99.90
30572;DHT22;17348;50.948;10.696;2022-09-03T18:55:37;17.70;99.90
30572;DHT22;17348;50.948;10.696;2022-09-03T18:59:09;17.70;99.90
30572;DHT22;17348;50.948;10.696;2022-09-03T19:02:40;17.70;99.90
30572;DHT22;17348;50.948;10.696;2022-09-03T19:06:14;17.70;99.90
30572;DHT22;17348;50.948;10.696;2022-09-03T19:09:44;17.70;99.90
30572;DHT22;17348;50.948;10.696;2022-09-03T19:13:16;17.70;99.90
30572;DHT22;17348;50.948;10.696;2022-09-03T19:16:46;17.70;99.90
30572;DHT22;17348;50.948;10.696;2022-09-03T19:20:16;17.60;99.90
30572;DHT22;17348;50.948;10.696;2022-09-03T19:23:38;17.60;99.90
30572;DHT22;17348;50.948;10.696;2022-09-03T19:27:03;17.60;99.90
30572;DHT22;17348;50.948;10.696;2022-09-03T19:30:31;17.60;99.90
30572;DHT22;17348;50.948;10.696;2022-09-03T19:33:57;17.50;99.90
30572;DHT22;17348;50.948;10.696;2022-09-03T19:37:24;17.50;99.90
30572;DHT22;17348;50.948;10.696;2022-09-03T19:40:56;17.50;99.90
30572;DHT22;17348;50.948;10.696;2022-09-03T19:44:29;17.50;99.90
30572;DHT22;17348;50.948;10.696;2022-09-03T19:48:00;17.50;99.90